Time;durP1;ratioP1;P1;durP2;ratioP2;P2;SDS_P1;SDS_P2;PMS_P1;PMS_P2;Temp;Humidity;BMP_temperature;BMP_pressure;BME280_temperature;BME280_humidity;BME280_pressure;Samples;Min_cycle;Max_cycle;Signal;HPM_P1;HPM_P2
2022/12/19 00:04:35;;;;;;;32.50;23.73;;;;;;;-0.93;68.48;101201.09;10342031;28;20049;-56
2022/12/19 00:09:37;;;;;;;30.80;21.23;;;;;;;-0.91;68.19;101203.69;10343398;28;20062;-56
2022/12/19 00:14:38;;;;;;;31.70;22.77;;;;;;;-0.89;67.56;101201.88;10321992;28;20053;-56
2022/12/19 00:19:40;;;;;;;34.13;23.35;;;;;;;-0.94;68.22;101193.28;10344923;28;20079;-56
2022/12/19 00:24:42;;;;;;;33.15;22.25;;;;;;;-0.86;68.58;101188.75;10343805;28;20133;-56
2022/12/19 00:29:43;;;;;;;32.80;22.73;;;;;;;-0.85;67.74;101184.41;10334780;28;20049;-55
2022/12/19 00:34:45;;;;;;;30.50;20.77;;;;;;;-0.81;67.92;101186.06;10344309;28;20577;-54
2022/12/19 00:39:47;;;;;;;34.15;22.92;;;;;;;-0.76;67.91;101184.22;10333320;28;20601;-55
2022/12/19 00:44:49;;;;;;;31.67;22.60;;;;;;;-0.75;68.51;101178.09;10344839;28;20066;-54
2022/12/19 00:49:50;;;;;;;32.35;22.35;;;;;;;-0.78;68.96;101181.66;10342185;28;20662;-65
2022/12/19 00:54:52;;;;;;;34.50;22.77;;;;;;;-0.76;68.64;101174.63;10353339;28;20054;-56
2022/12/19 00:59:54;;;;;;;35.35;24.55;;;;;;;-0.73;68.66;101190.25;10338832;28;20077;-55
2022/12/19 01:04:55;;;;;;;34.42;22.35;;;;;;;-0.65;68.22;101182.25;10348021;28;20049;-56
2022/12/19 01:09:57;;;;;;;32.17;22.20;;;;;;;-0.61;68.79;101170.84;10355725;28;20175;-57
2022/12/19 01:14:58;;;;;;;30.88;23.02;;;;;;;-0.59;68.55;101170.81;10339646;28;20058;-55
2022/12/19 01:20:06;;;;;;;35.53;25.17;;;;;;;-0.58;68.02;101188.25;10344499;28;20151;-55
2022/12/19 01:25:07;;;;;;;35.03;23.35;;;;;;;-0.54;67.63;101180.31;10334444;28;20050;-55
2022/12/19 01:30:09;;;;;;;34.35;22.83;;;;;;;-0.54;68.03;101192.53;10334723;28;20154;-55
2022/12/19 01:35:11;;;;;;;28.50;22.55;;;;;;;-0.50;67.89;101180.25;10343470;28;20695;-55
2022/12/19 01:40:22;;;;;;;34.65;22.85;;;;;;;-0.59;68.00;101176.06;10345533;28;20041;-55
2022/12/19 01:45:31;;;;;;;32.40;22.90;;;;;;;-0.61;67.64;101156.94;10346262;28;20161;-55
2022/12/19 01:50:46;;;;;;;32.28;22.88;;;;;;;-0.67;68.09;101155.28;10332964;28;20394;-55
2022/12/19 01:56:05;;;;;;;32.22;22.35;;;;;;;-0.64;68.77;101151.75;10330103;28;20512;-55
2022/12/19 02:01:09;;;;;;;32.13;23.70;;;;;;;-0.59;69.44;101160.38;10315469;28;20050;-55
2022/12/19 02:06:12;;;;;;;32.30;22.08;;;;;;;-0.55;70.41;101157.66;10317693;28;20045;-56
2022/12/19 02:11:14;;;;;;;35.88;23.27;;;;;;;-0.56;71.37;101128.91;10338092;28;20058;-55
2022/12/19 02:16:37;;;;;;;35.47;24.33;;;;;;;-0.56;71.81;101137.63;10342569;28;20174;-56
2022/12/19 02:22:04;;;;;;;31.65;22.15;;;;;;;-0.50;72.56;101141.03;10340032;28;20053;-55
2022/12/19 02:27:23;;;;;;;33.50;24.02;;;;;;;-0.48;72.26;101137.50;10341348;28;20061;-55
2022/12/19 02:32:41;;;;;;;34.45;24.67;;;;;;;-0.43;72.98;101125.16;10322590;28;20048;-56
2022/12/19 02:38:05;;;;;;;31.92;22.80;;;;;;;-0.40;73.48;101104.16;10336468;28;20041;-55
2022/12/19 02:43:13;;;;;;;33.20;22.63;;;;;;;-0.37;73.26;101108.47;10341429;28;20733;-55
2022/12/19 02:48:16;;;;;;;30.90;22.23;;;;;;;-0.37;73.16;101098.00;10346056;28;20046;-55
2022/12/19 02:53:19;;;;;;;30.65;24.08;;;;;;;-0.44;73.01;101112.97;10347885;28;20045;-56
2022/12/19 02:58:27;;;;;;;24.07;17.73;;;;;;;-0.34;72.96;101110.19;10345746;28;20048;-56
2022/12/19 03:03:50;;;;;;;32.45;23.67;;;;;;;-0.36;73.11;101082.28;10353406;28;20303;-55
2022/12/19 03:09:10;;;;;;;33.95;23.65;;;;;;;-0.41;72.78;101075.41;10352192;28;20199;-59
2022/12/19 03:14:17;;;;;;;32.45;23.60;;;;;;;-0.46;73.66;101083.38;10346640;28;20128;-56
2022/12/19 03:19:18;;;;;;;33.40;24.40;;;;;;;-0.44;73.92;101092.03;10347974;28;20165;-55
2022/12/19 03:24:20;;;;;;;32.80;23.38;;;;;;;-0.47;73.88;101086.03;10350956;28;20050;-55
2022/12/19 03:29:41;;;;;;;33.90;23.85;;;;;;;-0.34;73.72;101081.41;10352188;28;20064;-55
2022/12/19 03:34:56;;;;;;;33.75;23.05;;;;;;;-0.41;73.51;101080.66;10349874;28;20168;-55
2022/12/19 03:40:06;;;;;;;36.85;24.98;;;;;;;-0.38;73.49;101084.06;10343211;28;20053;-59
2022/12/19 03:45:09;;;;;;;33.65;23.52;;;;;;;-0.31;74.04;101090.03;10349468;28;20059;-56
2022/12/19 03:50:11;;;;;;;31.80;23.52;;;;;;;-0.32;73.85;101076.97;10347596;28;20045;-56
2022/12/19 03:55:20;;;;;;;29.90;22.23;;;;;;;-0.25;73.95;101081.19;10343190;28;20064;-55
2022/12/19 04:00:24;;;;;;;32.83;23.58;;;;;;;-0.24;73.81;101081.16;10337317;28;20119;-56
2022/12/19 04:05:27;;;;;;;32.38;23.27;;;;;;;-0.12;73.96;101082.63;10340620;28;20767;-56
2022/12/19 04:10:31;;;;;;;33.50;24.10;;;;;;;-0.10;73.41;101080.84;10348316;28;20081;-59
2022/12/19 04:15:48;;;;;;;32.38;24.15;;;;;;;-0.18;73.30;101077.53;10350415;28;20115;-55
2022/12/19 04:20:56;;;;;;;30.60;22.63;;;;;;;-0.11;73.40;101073.88;10348919;28;20053;-55
2022/12/19 04:26:02;;;;;;;33.20;24.00;;;;;;;-0.08;73.97;101058.09;10355215;28;20864;-55
2022/12/19 04:31:05;;;;;;;36.80;23.75;;;;;;;-0.14;73.75;101073.94;10350838;28;20045;-55
2022/12/19 04:36:09;;;;;;;31.05;22.42;;;;;;;-0.17;74.38;101062.69;10350729;28;20329;-57
2022/12/19 04:41:11;;;;;;;34.53;24.80;;;;;;;-0.19;74.42;101054.88;10347791;28;20799;-56
2022/12/19 04:46:12;;;;;;;36.67;25.52;;;;;;;-0.15;74.60;101045.19;10350257;28;20069;-56
2022/12/19 04:51:14;;;;;;;38.90;25.58;;;;;;;-0.19;75.22;101047.03;10349301;28;20161;-56
2022/12/19 04:56:16;;;;;;;35.83;25.05;;;;;;;-0.19;74.95;101042.66;10325724;28;20043;-57
2022/12/19 05:01:17;;;;;;;34.92;25.10;;;;;;;-0.21;75.47;101040.94;10344176;28;20132;-56
2022/12/19 05:06:19;;;;;;;36.40;25.33;;;;;;;-0.14;75.48;101039.91;10343190;28;20066;-55
2022/12/19 05:11:21;;;;;;;36.58;25.85;;;;;;;-0.08;75.03;101031.06;10347120;28;20466;-59
2022/12/19 05:16:23;;;;;;;37.03;25.13;;;;;;;-0.06;74.58;101040.63;10343381;28;20050;-56
2022/12/19 05:21:25;;;;;;;35.70;25.67;;;;;;;-0.01;75.36;101038.72;10331045;28;21386;-55
2022/12/19 05:26:27;;;;;;;34.72;25.30;;;;;;;-0.01;75.52;101043.97;10342785;28;20061;-58
2022/12/19 05:31:28;;;;;;;37.90;26.00;;;;;;;-0.02;75.33;101031.75;10325133;28;20064;-56
2022/12/19 05:36:30;;;;;;;37.13;25.98;;;;;;;-0.06;75.80;101032.75;10338997;28;20050;-55
2022/12/19 05:41:33;;;;;;;40.78;26.98;;;;;;;-0.06;76.54;101035.38;10323482;28;20064;-55
2022/12/19 05:46:34;;;;;;;35.45;25.75;;;;;;;0.02;76.42;101036.97;10338739;28;20208;-55
2022/12/19 05:51:36;;;;;;;37.40;25.33;;;;;;;0.05;76.68;101039.50;10339105;28;20131;-55
2022/12/19 05:56:37;;;;;;;36.50;25.40;;;;;;;0.07;76.26;101029.84;10344365;28;20772;-55
2022/12/19 06:01:39;;;;;;;34.13;25.98;;;;;;;0.04;76.50;101029.91;10339646;28;20875;-55
2022/12/19 06:06:41;;;;;;;43.67;28.13;;;;;;;0.10;76.57;101035.00;10334781;28;20110;-55
2022/12/19 06:11:42;;;;;;;38.28;27.05;;;;;;;0.08;76.08;101031.56;10318871;28;20721;-55
2022/12/19 06:16:44;;;;;;;36.88;26.20;;;;;;;0.12;76.45;101033.19;10316789;28;20049;-55
2022/12/19 06:21:45;;;;;;;38.25;26.30;;;;;;;0.20;76.36;101040.88;10327098;28;20053;-56
2022/12/19 06:26:49;;;;;;;35.88;25.02;;;;;;;0.24;75.86;101046.00;10279066;28;20061;-55
2022/12/19 06:31:50;;;;;;;40.05;26.30;;;;;;;0.34;75.65;101050.09;10326830;28;20057;-54
2022/12/19 06:36:51;;;;;;;37.92;25.48;;;;;;;0.38;75.51;101034.31;10300665;28;20057;-54
2022/12/19 06:47:14;;;;;;;34.83;25.85;;;;;;;0.39;76.43;101041.25;10326186;28;20060;-54
2022/12/19 06:52:21;;;;;;;37.53;27.42;;;;;;;0.44;76.82;101044.63;10326402;28;20080;-54
2022/12/19 06:57:22;;;;;;;38.92;25.63;;;;;;;0.40;76.79;101033.34;10332423;28;20501;-54
2022/12/19 07:02:28;;;;;;;38.17;25.73;;;;;;;0.49;77.18;101021.78;10344359;28;20152;-55
2022/12/19 07:07:31;;;;;;;38.83;27.92;;;;;;;0.55;76.74;101032.09;10337761;28;20088;-54
2022/12/19 07:12:34;;;;;;;40.13;26.85;;;;;;;0.49;76.38;101027.03;10335737;28;21265;-54
2022/12/19 07:17:36;;;;;;;38.60;27.20;;;;;;;0.40;77.39;101015.03;10342611;28;20251;-54
2022/12/19 07:22:38;;;;;;;39.28;26.58;;;;;;;0.42;78.16;101014.97;10334126;28;20191;-56
2022/12/19 07:27:40;;;;;;;39.58;26.88;;;;;;;0.58;76.95;101032.00;10343007;28;20411;-53
2022/12/19 07:32:41;;;;;;;38.10;26.70;;;;;;;0.72;76.96;101033.41;10343915;28;20289;-54
2022/12/19 07:37:43;;;;;;;36.55;25.15;;;;;;;0.70;76.79;101021.19;10349629;28;22359;-54
2022/12/19 07:42:44;;;;;;;40.63;27.38;;;;;;;0.69;76.39;101027.38;10330770;28;20053;-53
2022/12/19 07:47:46;;;;;;;38.42;26.20;;;;;;;0.73;76.48;101035.13;10353114;28;20061;-61
2022/12/19 07:52:48;;;;;;;37.65;26.52;;;;;;;0.73;76.74;101041.22;10339085;28;20050;-54
2022/12/19 07:57:49;;;;;;;37.08;25.42;;;;;;;0.79;76.71;101037.59;10335709;28;20054;-53
2022/12/19 08:02:51;;;;;;;42.00;26.08;;;;;;;0.77;76.77;101032.38;10327885;28;20049;-55
2022/12/19 08:07:53;;;;;;;41.25;26.73;;;;;;;0.82;76.94;101034.88;10348248;28;20053;-54
2022/12/19 08:12:54;;;;;;;36.78;25.92;;;;;;;0.82;76.84;101021.78;10325683;28;20060;-54
2022/12/19 08:17:56;;;;;;;36.42;25.13;;;;;;;0.93;76.94;101032.84;10337114;28;20196;-62
2022/12/19 08:22:57;;;;;;;38.67;26.40;;;;;;;0.94;76.59;101023.19;10342523;28;20965;-55
2022/12/19 08:27:59;;;;;;;38.67;25.95;;;;;;;0.95;76.75;101040.66;10334772;28;21056;-55
2022/12/19 08:33:00;;;;;;;35.58;26.25;;;;;;;1.08;75.97;101036.75;10343862;28;20574;-54
2022/12/19 08:38:02;;;;;;;39.33;26.60;;;;;;;1.16;76.25;101032.16;10324465;28;20050;-54
2022/12/19 08:43:04;;;;;;;37.70;26.08;;;;;;;1.17;76.49;101019.91;10346846;28;21704;-55
2022/12/19 08:48:06;;;;;;;35.78;25.58;;;;;;;1.13;76.66;101028.78;10346145;28;20171;-58
2022/12/19 08:53:07;;;;;;;35.70;25.65;;;;;;;1.17;76.22;101030.41;10345022;28;20140;-54
2022/12/19 08:58:09;;;;;;;40.40;28.45;;;;;;;1.11;76.05;101010.47;10338059;28;20049;-54
2022/12/19 09:03:10;;;;;;;37.75;26.17;;;;;;;1.19;76.74;101015.50;10339782;28;20064;-54
2022/12/19 09:08:13;;;;;;;37.45;25.55;;;;;;;1.29;76.69;101031.81;10319405;28;20057;-54
2022/12/19 09:13:15;;;;;;;36.90;25.30;;;;;;;1.24;76.52;101024.06;10341644;28;20049;-53
2022/12/19 09:18:16;;;;;;;37.60;25.23;;;;;;;1.25;76.51;101025.81;10345139;28;20068;-53
2022/12/19 09:23:27;;;;;;;37.38;25.58;;;;;;;1.28;76.41;101032.72;10343409;28;20042;-54
2022/12/19 09:28:29;;;;;;;42.00;28.23;;;;;;;1.33;77.09;101026.41;10330516;28;20076;-54
2022/12/19 09:33:33;;;;;;;41.13;26.98;;;;;;;1.39;77.13;101020.97;10333668;28;20049;-54
2022/12/19 09:38:44;;;;;;;35.67;25.30;;;;;;;1.41;76.88;101013.94;10338467;28;20057;-54
2022/12/19 09:44:03;;;;;;;36.83;27.45;;;;;;;1.47;76.85;101017.28;10333990;28;20053;-55
2022/12/19 09:49:12;;;;;;;34.58;26.98;;;;;;;1.52;76.61;101020.63;10307740;28;20118;-54
2022/12/19 09:54:26;;;;;;;165.48;151.18;;;;;;;1.48;76.59;101024.25;10327344;28;20065;-54
2022/12/19 09:59:34;;;;;;;44.88;39.67;;;;;;;1.52;75.98;101018.88;10294256;28;20052;-54
2022/12/19 10:04:49;;;;;;;39.58;28.17;;;;;;;1.50;76.64;101022.44;10340929;28;20061;-56
2022/12/19 10:10:26;;;;;;;38.28;25.75;;;;;;;1.46;77.17;101011.19;10324464;28;20050;-54
2022/12/19 10:15:56;;;;;;;36.55;26.92;;;;;;;1.51;77.74;101008.41;10334310;28;20045;-54
2022/12/19 10:21:30;;;;;;;38.15;27.00;;;;;;;1.58;77.53;101009.94;10334729;28;20060;-57
2022/12/19 10:26:56;;;;;;;39.45;26.90;;;;;;;1.64;77.49;100987.91;10318741;28;20964;-55
2022/12/19 10:32:18;;;;;;;40.33;28.10;;;;;;;1.74;78.42;100984.94;10309045;28;20053;-54
2022/12/19 10:37:23;;;;;;;41.38;27.90;;;;;;;1.77;78.05;100979.59;10312229;28;20057;-54
2022/12/19 10:42:40;;;;;;;43.97;28.85;;;;;;;1.76;78.38;100975.25;10337341;28;20707;-54
2022/12/19 10:47:42;;;;;;;45.67;29.92;;;;;;;1.75;78.35;100970.88;10324009;28;20057;-55
2022/12/19 10:52:46;;;;;;;41.33;28.52;;;;;;;1.84;78.92;100980.22;10339854;28;20049;-54
2022/12/19 10:57:47;;;;;;;38.67;28.13;;;;;;;1.96;79.46;100976.34;10336608;28;20050;-56
2022/12/19 11:03:03;;;;;;;41.17;27.88;;;;;;;2.04;79.09;100971.72;10352382;28;20136;-54
2022/12/19 11:08:05;;;;;;;38.80;27.75;;;;;;;2.05;78.05;100947.16;10340879;28;20042;-55
2022/12/19 11:13:22;;;;;;;39.78;27.13;;;;;;;2.07;78.43;100929.59;10355673;28;20057;-53
2022/12/19 11:18:45;;;;;;;35.72;26.20;;;;;;;2.00;78.33;100922.81;10357149;28;20621;-55
2022/12/19 11:24:17;;;;;;;40.67;27.85;;;;;;;2.09;78.84;100926.91;10343965;28;20050;-55
2022/12/19 11:29:48;;;;;;;43.38;30.92;;;;;;;2.12;78.75;100927.66;10323113;28;20069;-54
2022/12/19 11:35:24;;;;;;;40.60;27.27;;;;;;;2.17;79.03;100921.38;10340342;28;20057;-54
2022/12/19 11:40:46;;;;;;;44.60;31.15;;;;;;;2.22;78.64;100927.31;10310957;28;20065;-55
2022/12/19 11:46:05;;;;;;;56.70;40.17;;;;;;;2.17;78.94;100910.88;10331176;28;20410;-54
2022/12/19 11:51:38;;;;;;;37.47;27.17;;;;;;;2.18;79.54;100904.69;10333582;28;20057;-55
2022/12/19 11:56:40;;;;;;;34.75;26.38;;;;;;;2.23;79.65;100897.53;10337718;28;20052;-54
2022/12/19 12:01:59;;;;;;;40.60;27.00;;;;;;;2.27;79.83;100900.00;10336647;28;20054;-54
2022/12/19 12:07:04;;;;;;;39.30;26.30;;;;;;;2.26;79.30;100886.91;10313729;28;20746;-60
2022/12/19 12:12:23;;;;;;;36.00;24.83;;;;;;;2.37;79.44;100878.63;10333650;28;20143;-54
2022/12/19 12:18:47;;;;;;;37.10;25.92;;;;;;;2.36;79.64;100872.53;10327540;28;20718;-54
2022/12/19 12:24:47;;;;;;;37.40;25.95;;;;;;;2.38;80.40;100881.19;10213821;28;20498;-54
2022/12/19 12:30:12;;;;;;;38.15;26.15;;;;;;;2.42;80.86;100861.78;10328944;28;20045;-54
2022/12/19 12:35:38;;;;;;;35.55;27.15;;;;;;;2.38;80.71;100861.97;10304217;28;20052;-55
2022/12/19 12:41:18;;;;;;;;;;;;;;;2.45;80.96;100851.16;10332820;28;20042;-54
2022/12/19 12:46:25;;;;;;;43.55;26.75;;;;;;;2.47;81.64;100844.06;10328892;28;19929;-54
2022/12/19 12:51:27;;;;;;;34.80;24.15;;;;;;;2.50;81.28;100855.41;10332196;28;20052;-54
2022/12/19 12:56:30;;;;;;;40.53;27.75;;;;;;;2.53;81.13;100852.66;10341980;28;20075;-54
2022/12/19 13:01:33;;;;;;;35.63;27.00;;;;;;;2.67;81.34;100860.00;10347126;28;20057;-54
2022/12/19 13:06:42;;;;;;;34.65;25.65;;;;;;;2.68;82.18;100853.84;10346228;28;20180;-54
2022/12/19 13:17:42;;;;;;;38.95;27.42;;;;;;;2.81;81.44;100840.16;10337906;28;20058;-56
2022/12/19 13:23:19;;;;;;;36.70;25.25;;;;;;;2.76;81.49;100831.63;10339521;28;20056;-54
2022/12/19 13:28:21;;;;;;;36.72;25.63;;;;;;;2.81;81.72;100826.19;10326429;28;20053;-55
2022/12/19 13:33:44;;;;;;;32.50;25.58;;;;;;;2.85;81.66;100827.75;10314223;28;20054;-54
2022/12/19 13:38:49;;;;;;;33.33;24.20;;;;;;;2.89;81.55;100825.88;10318377;28;20050;-56
2022/12/19 13:44:11;;;;;;;34.28;24.58;;;;;;;2.84;81.68;100826.06;10341880;28;20060;-54
2022/12/19 13:49:16;;;;;;;36.78;26.63;;;;;;;2.83;82.11;100834.84;10337004;28;20146;-55
2022/12/19 13:54:31;;;;;;;35.58;25.35;;;;;;;2.77;82.63;100822.78;10346607;28;20053;-62
2022/12/19 13:59:37;;;;;;;37.22;25.13;;;;;;;2.80;82.66;100825.28;10320663;28;20059;-54
2022/12/19 14:04:39;;;;;;;77.75;57.72;;;;;;;2.71;82.97;100824.81;10342625;28;20143;-56
2022/12/19 14:09:43;;;;;;;95.30;60.95;;;;;;;2.74;82.92;100815.03;10339520;28;20084;-54
2022/12/19 14:15:27;;;;;;;87.03;56.17;;;;;;;2.70;83.43;100810.78;10349224;28;20049;-54
2022/12/19 14:20:30;;;;;;;80.40;54.28;;;;;;;2.67;83.47;100805.66;10331936;28;20052;-61
2022/12/19 14:25:54;;;;;;;117.13;77.95;;;;;;;2.73;83.48;100828.22;10325468;28;20064;-53
2022/12/19 14:31:17;;;;;;;42.45;31.08;;;;;;;2.80;83.36;100830.56;10325771;28;20045;-54
2022/12/19 14:36:25;;;;;;;41.00;26.52;;;;;;;2.77;83.34;100814.91;10320092;28;20053;-55
2022/12/19 14:47:14;;;;;;;35.78;26.85;;;;;;;2.82;83.90;100812.97;10338561;28;20173;-54
2022/12/19 14:52:45;;;;;;;36.28;27.05;;;;;;;2.90;83.09;100820.53;10345711;28;20054;-54
2022/12/19 14:58:16;;;;;;;40.42;32.85;;;;;;;2.87;83.81;100811.91;10342314;28;20060;-54
2022/12/19 15:03:48;;;;;;;39.20;30.27;;;;;;;2.89;84.33;100813.56;10341149;28;20056;-54
2022/12/19 15:09:16;;;;;;;37.13;26.23;;;;;;;2.95;83.74;100802.81;10335615;28;20717;-54
2022/12/19 15:14:44;;;;;;;44.72;37.67;;;;;;;2.86;83.83;100802.31;10369752;28;20052;-57
2022/12/19 15:19:58;;;;;;;37.72;26.55;;;;;;;2.90;83.50;100801.25;10349357;28;20223;-55
2022/12/19 15:25:00;;;;;;;34.40;25.10;;;;;;;2.90;83.31;100804.78;10344373;28;20494;-55
2022/12/19 15:30:02;;;;;;;37.92;26.90;;;;;;;2.88;83.96;100796.06;10325551;28;20156;-54
2022/12/19 15:35:10;;;;;;;36.25;25.90;;;;;;;2.83;84.09;100772.59;10332082;28;20068;-54
2022/12/19 15:40:15;;;;;;;36.05;26.83;;;;;;;2.78;83.51;100779.81;10346714;28;20161;-54
2022/12/19 15:45:19;;;;;;;34.80;25.52;;;;;;;2.75;84.33;100779.94;10343369;28;20144;-54
2022/12/19 15:50:24;;;;;;;36.00;26.98;;;;;;;2.72;84.40;100781.81;10340941;28;20050;-54
2022/12/19 15:55:28;;;;;;;;;;;;;;;2.75;84.01;100792.25;10332039;28;20053;-54
2022/12/19 16:00:35;;;;;;;36.85;28.30;;;;;;;2.72;84.29;100782.69;10339889;28;19925;-54
2022/12/19 16:05:37;;;;;;;40.90;28.70;;;;;;;2.69;84.34;100764.41;10308391;28;20065;-54
2022/12/19 16:10:40;;;;;;;40.92;28.33;;;;;;;2.70;84.43;100766.09;10341425;28;20701;-53
2022/12/19 16:15:41;;;;;;;32.75;25.73;;;;;;;2.76;83.98;100763.25;10322354;28;20087;-59
2022/12/19 16:20:43;;;;;;;41.47;28.08;;;;;;;2.73;84.57;100755.50;10344319;28;20579;-54
2022/12/19 16:25:50;;;;;;;36.17;27.15;;;;;;;2.73;84.17;100760.75;10330223;28;20053;-55
2022/12/19 16:30:53;;;;;;;39.92;26.27;;;;;;;2.72;84.21;100759.03;10339896;28;20053;-54
2022/12/19 16:35:56;;;;;;;36.63;27.20;;;;;;;2.72;84.30;100738.00;10330849;28;20131;-53
2022/12/19 16:41:15;;;;;;;37.38;27.40;;;;;;;2.72;84.39;100742.38;10318094;28;20049;-54
2022/12/19 16:46:22;;;;;;;37.70;27.25;;;;;;;2.73;84.28;100736.22;10322878;28;20434;-54
2022/12/19 16:51:26;;;;;;;37.15;27.52;;;;;;;2.67;84.37;100739.94;10326259;28;20045;-54
2022/12/19 16:56:40;;;;;;;38.60;27.63;;;;;;;2.65;84.17;100737.38;10299785;28;20084;-60
2022/12/19 17:01:43;;;;;;;36.60;28.42;;;;;;;2.68;84.07;100748.69;10323549;28;20181;-54
2022/12/19 17:06:46;;;;;;;34.95;27.52;;;;;;;2.66;83.95;100746.13;10333280;28;20060;-53
2022/12/19 17:11:54;;;;;;;38.83;28.23;;;;;;;2.64;84.19;100755.81;10347604;28;20516;-53
2022/12/19 17:16:57;;;;;;;37.60;28.20;;;;;;;2.62;84.25;100755.03;10323863;28;20093;-53
2022/12/19 17:21:59;;;;;;;37.70;27.05;;;;;;;2.64;84.09;100771.59;10341206;28;20049;-55
2022/12/19 17:27:00;;;;;;;38.80;28.00;;;;;;;2.66;84.54;100764.53;10338977;28;20045;-53
2022/12/19 17:32:03;;;;;;;37.45;27.92;;;;;;;2.67;84.21;100776.72;10340714;28;20705;-54
2022/12/19 17:37:04;;;;;;;37.83;29.67;;;;;;;2.73;84.27;100766.00;10339063;28;20153;-55
2022/12/19 17:42:20;;;;;;;38.22;28.92;;;;;;;2.73;84.28;100742.34;10330098;28;20511;-54
2022/12/19 17:47:22;;;;;;;40.60;30.92;;;;;;;2.73;84.37;100737.09;10338612;28;20690;-54
2022/12/19 17:52:23;;;;;;;39.15;30.40;;;;;;;2.72;84.36;100735.38;10333242;28;20057;-55
2022/12/19 17:57:25;;;;;;;40.03;31.25;;;;;;;2.77;84.29;100740.44;10321306;28;20053;-55
2022/12/19 18:02:27;;;;;;;35.85;27.52;;;;;;;2.81;84.46;100753.41;10326141;28;20563;-55
2022/12/19 18:07:29;;;;;;;34.97;26.63;;;;;;;2.80;84.34;100733.28;10331532;28;20065;-54
2022/12/19 18:12:30;;;;;;;40.50;30.90;;;;;;;2.78;84.75;100729.00;10319840;28;20041;-54
2022/12/19 18:17:32;;;;;;;41.15;31.85;;;;;;;2.73;84.37;100712.56;10339322;28;20646;-54
2022/12/19 18:22:34;;;;;;;44.60;32.10;;;;;;;2.66;84.64;100722.47;10339823;28;20050;-55
2022/12/19 18:27:36;;;;;;;45.92;33.17;;;;;;;2.65;84.60;100700.56;10325643;28;22882;-55
2022/12/19 18:32:37;;;;;;;43.25;30.65;;;;;;;2.61;84.61;100687.59;10327321;28;20164;-54
2022/12/19 18:37:39;;;;;;;42.53;31.55;;;;;;;2.56;85.15;100700.09;10316973;28;20069;-54
2022/12/19 18:42:41;;;;;;;42.47;29.92;;;;;;;2.61;84.71;100709.53;10323242;28;20057;-56
2022/12/19 18:47:45;;;;;;;42.10;30.95;;;;;;;2.65;84.23;100720.75;10330627;28;20564;-57
2022/12/19 18:52:52;;;;;;;42.05;31.73;;;;;;;2.59;84.67;100713.13;10341327;28;20140;-59
2022/12/19 18:57:54;;;;;;;40.92;32.50;;;;;;;2.60;84.55;100720.94;10297500;28;20042;-58
2022/12/19 19:02:59;;;;;;;41.63;31.20;;;;;;;2.64;84.14;100734.81;10343596;28;20050;-58
2022/12/19 19:08:20;;;;;;;41.13;31.17;;;;;;;2.62;84.30;100739.28;10340408;28;20072;-58
2022/12/19 19:13:24;;;;;;;40.03;30.17;;;;;;;2.64;84.05;100734.81;10324933;28;20490;-58
2022/12/19 19:18:33;;;;;;;42.95;31.70;;;;;;;2.67;83.87;100726.78;10320270;28;20123;-59
2022/12/19 19:23:41;;;;;;;41.55;31.38;;;;;;;2.68;84.10;100720.63;10311508;28;20605;-58
2022/12/19 19:28:45;;;;;;;37.83;29.17;;;;;;;2.78;83.79;100713.25;10319538;28;20056;-60
2022/12/19 19:33:59;;;;;;;39.00;29.38;;;;;;;2.79;83.54;100726.31;10298412;28;20140;-57
2022/12/19 19:39:03;;;;;;;38.15;29.60;;;;;;;2.81;83.41;100729.72;10314795;28;20057;-58
2022/12/19 19:44:04;;;;;;;40.55;31.38;;;;;;;2.87;83.52;100725.13;10307267;28;20064;-57
2022/12/19 19:49:09;;;;;;;41.95;32.03;;;;;;;2.81;83.27;100731.53;10330926;28;20045;-57
2022/12/19 19:54:11;;;;;;;37.22;29.95;;;;;;;2.81;83.46;100716.59;10294220;28;20119;-60
2022/12/19 19:59:13;;;;;;;38.92;31.20;;;;;;;2.85;83.78;100711.19;10341950;28;20057;-57
2022/12/19 20:04:16;;;;;;;37.50;28.30;;;;;;;2.87;83.73;100725.13;10324886;28;20096;-60
2022/12/19 20:09:17;;;;;;;35.47;27.92;;;;;;;2.87;83.79;100740.91;10325221;28;20060;-61
2022/12/19 20:14:19;;;;;;;40.17;29.25;;;;;;;2.91;84.27;100729.34;10305597;28;20074;-57
2022/12/19 20:19:21;;;;;;;41.45;30.85;;;;;;;3.00;83.56;100742.13;10297396;28;20053;-58
2022/12/19 20:24:23;;;;;;;39.55;30.73;;;;;;;3.05;83.95;100729.66;10288771;28;20101;-57
2022/12/19 20:29:26;;;;;;;39.03;29.00;;;;;;;3.03;83.59;100731.47;10273515;28;20309;-58
2022/12/19 20:34:28;;;;;;;37.05;29.00;;;;;;;3.01;83.57;100739.44;10331948;28;20456;-57
2022/12/19 20:39:32;;;;;;;36.95;30.17;;;;;;;3.01;83.65;100762.25;10314420;28;20038;-57
2022/12/19 20:44:34;;;;;;;38.20;30.77;;;;;;;3.10;83.82;100766.28;10329039;28;20591;-59
2022/12/19 20:49:35;;;;;;;40.08;29.80;;;;;;;3.03;83.79;100749.03;10342019;28;20056;-58
2022/12/19 20:54:37;;;;;;;41.95;29.38;;;;;;;3.06;84.03;100749.75;10301420;28;20772;-57
2022/12/19 20:59:40;;;;;;;37.78;29.13;;;;;;;3.06;83.81;100746.28;10334211;28;20741;-57
2022/12/19 21:04:41;;;;;;;38.40;29.80;;;;;;;3.10;83.55;100747.88;10342001;28;20069;-57
2022/12/19 21:09:49;;;;;;;37.35;29.30;;;;;;;3.03;83.33;100759.56;10338810;28;20746;-57
2022/12/19 21:14:50;;;;;;;35.97;28.38;;;;;;;3.01;83.73;100757.00;10321649;28;20107;-56
2022/12/19 21:19:51;;;;;;;39.22;29.35;;;;;;;3.02;83.40;100748.19;10325942;28;20046;-58
2022/12/19 21:24:53;;;;;;;37.90;29.38;;;;;;;2.96;83.57;100753.72;10323722;28;20542;-56
2022/12/19 21:29:54;;;;;;;41.17;31.65;;;;;;;2.94;83.89;100752.91;10346142;28;20055;-63
2022/12/19 21:34:56;;;;;;;42.70;32.20;;;;;;;2.91;83.92;100760.91;10326017;28;20057;-57
2022/12/19 21:39:57;;;;;;;43.15;33.28;;;;;;;2.87;83.51;100747.03;10338238;28;20125;-57
2022/12/19 21:44:59;;;;;;;42.30;31.83;;;;;;;2.80;83.81;100746.41;10338988;28;20443;-58
2022/12/19 21:50:00;;;;;;;41.08;33.42;;;;;;;2.82;83.85;100738.47;10305850;28;20178;-58
2022/12/19 21:55:03;;;;;;;40.05;31.60;;;;;;;2.83;84.13;100750.69;10325155;28;20507;-61
2022/12/19 22:00:07;;;;;;;43.72;33.13;;;;;;;2.86;84.31;100734.81;10345649;28;20050;-57
2022/12/19 22:05:09;;;;;;;40.53;32.28;;;;;;;2.94;83.94;100731.84;10309419;28;20502;-57
2022/12/19 22:10:11;;;;;;;44.40;32.45;;;;;;;2.91;83.98;100726.72;10317455;28;20060;-57
2022/12/19 22:15:12;;;;;;;41.13;32.03;;;;;;;2.97;83.74;100723.84;10318150;28;20053;-57
2022/12/19 22:20:14;;;;;;;41.13;30.65;;;;;;;3.04;83.87;100725.28;10331779;28;20064;-60
2022/12/19 22:25:16;;;;;;;40.58;31.77;;;;;;;3.07;83.97;100727.81;10342424;28;20069;-57
2022/12/19 22:30:17;;;;;;;44.45;33.72;;;;;;;3.13;84.01;100724.06;10306844;28;20100;-58
2022/12/19 22:35:19;;;;;;;37.90;31.65;;;;;;;3.13;83.62;100726.69;10328700;28;20153;-58
2022/12/19 22:40:21;;;;;;;39.00;30.98;;;;;;;3.28;82.76;100709.41;10316464;28;20561;-58
2022/12/19 22:45:22;;;;;;;39.40;30.83;;;;;;;3.27;82.84;100713.81;10334345;28;20672;-62
2022/12/19 22:50:24;;;;;;;38.15;30.33;;;;;;;3.28;83.14;100725.19;10322725;28;20129;-59
2022/12/19 22:55:25;;;;;;;39.92;29.40;;;;;;;3.30;83.34;100712.81;10341387;28;20054;-56
2022/12/19 23:00:27;;;;;;;39.58;30.52;;;;;;;3.31;83.12;100720.63;10346633;28;20141;-57
2022/12/19 23:05:30;;;;;;;37.30;28.63;;;;;;;3.36;83.22;100695.00;10334698;28;20053;-57
2022/12/19 23:10:32;;;;;;;36.03;27.55;;;;;;;3.42;82.67;100706.16;10350509;28;20637;-57
2022/12/19 23:15:34;;;;;;;35.92;28.02;;;;;;;3.46;82.75;100702.50;10332245;28;20089;-57
2022/12/19 23:20:35;;;;;;;35.33;26.75;;;;;;;3.45;82.69;100685.84;10349858;28;20056;-57
2022/12/19 23:25:39;;;;;;;31.10;26.48;;;;;;;3.49;82.79;100692.66;10320698;28;20045;-57
2022/12/19 23:30:40;;;;;;;32.67;26.40;;;;;;;3.62;82.57;100690.38;10344534;28;20056;-56